sensor_id;sensor_type;location;lat;lon;timestamp;pressure;altitude;pressure_sealevel;temperature;humidity
64064;BME280;50314;50.618;10.642;2023-05-25T00:02:18;97339.63;;;20.48;23.15
64064;BME280;50314;50.618;10.642;2023-05-25T00:04:43;97337.09;;;20.46;23.13
64064;BME280;50314;50.618;10.642;2023-05-25T00:07:12;97338.28;;;20.44;23.33
64064;BME280;50314;50.618;10.642;2023-05-25T00:09:40;97342.78;;;20.43;23.27
64064;BME280;50314;50.618;10.642;2023-05-25T00:12:06;97343.94;;;20.40;23.30
64064;BME280;50314;50.618;10.642;2023-05-25T00:14:31;97343.09;;;20.40;23.20
64064;BME280;50314;50.618;10.642;2023-05-25T00:16:57;97343.09;;;20.40;23.22
64064;BME280;50314;50.618;10.642;2023-05-25T00:19:22;97337.75;;;20.40;23.13
64064;BME280;50314;50.618;10.642;2023-05-25T00:21:49;97333.38;;;20.39;23.25
64064;BME280;50314;50.618;10.642;2023-05-25T00:24:15;97328.34;;;20.36;23.28
64064;BME280;50314;50.618;10.642;2023-05-25T00:26:40;97336.69;;;20.33;23.14
64064;BME280;50314;50.618;10.642;2023-05-25T00:29:06;97337.88;;;20.30;23.19
64064;BME280;50314;50.618;10.642;2023-05-25T00:31:31;97339.03;;;20.28;23.36
64064;BME280;50314;50.618;10.642;2023-05-25T00:33:57;97338.34;;;20.26;23.43
64064;BME280;50314;50.618;10.642;2023-05-25T00:36:24;97332.31;;;20.24;23.51
64064;BME280;50314;50.618;10.642;2023-05-25T00:38:49;97331.50;;;20.23;23.32
64064;BME280;50314;50.618;10.642;2023-05-25T00:41:18;97332.63;;;20.21;23.45
64064;BME280;50314;50.618;10.642;2023-05-25T00:43:44;97332.63;;;20.21;23.48
64064;BME280;50314;50.618;10.642;2023-05-25T00:46:13;97327.59;;;20.17;23.37
64064;BME280;50314;50.618;10.642;2023-05-25T00:48:40;97338.31;;;20.17;23.54
64064;BME280;50314;50.618;10.642;2023-05-25T00:51:06;97335.94;;;20.14;23.41
64064;BME280;50314;50.618;10.642;2023-05-25T00:53:31;97336.13;;;20.13;23.21
64064;BME280;50314;50.618;10.642;2023-05-25T00:56:12;97330.56;;;20.06;23.46
64064;BME280;50314;50.618;10.642;2023-05-25T00:58:39;97331.22;;;20.08;23.37
64064;BME280;50314;50.618;10.642;2023-05-25T01:01:12;97335.22;;;20.04;23.69
64064;BME280;50314;50.618;10.642;2023-05-25T01:03:40;97331.53;;;20.05;23.53
64064;BME280;50314;50.618;10.642;2023-05-25T01:06:13;97330.03;;;20.03;23.58
64064;BME280;50314;50.618;10.642;2023-05-25T01:08:41;97332.84;;;20.01;23.52
64064;BME280;50314;50.618;10.642;2023-05-25T01:11:10;97332.84;;;20.01;23.41
64064;BME280;50314;50.618;10.642;2023-05-25T01:13:37;97336.53;;;20.00;23.30
64064;BME280;50314;50.618;10.642;2023-05-25T01:16:04;97338.47;;;19.98;23.56
64064;BME280;50314;50.618;10.642;2023-05-25T01:18:30;97331.59;;;19.95;23.63
64064;BME280;50314;50.618;10.642;2023-05-25T01:24:07;97335.56;;;19.83;23.67
64064;BME280;50314;50.618;10.642;2023-05-25T01:26:44;97328.19;;;19.85;23.49
64064;BME280;50314;50.618;10.642;2023-05-25T01:29:12;97332.41;;;19.88;23.35
64064;BME280;50314;50.618;10.642;2023-05-25T01:31:39;97331.41;;;19.89;23.30
64064;BME280;50314;50.618;10.642;2023-05-25T01:34:06;97330.72;;;19.87;23.33
64064;BME280;50314;50.618;10.642;2023-05-25T01:36:31;97325.69;;;19.84;23.64
64064;BME280;50314;50.618;10.642;2023-05-25T01:38:57;97327.84;;;19.80;23.40
64064;BME280;50314;50.618;10.642;2023-05-25T01:41:23;97326.19;;;19.79;23.54
64064;BME280;50314;50.618;10.642;2023-05-25T01:43:49;97331.66;;;19.78;23.44
64064;BME280;50314;50.618;10.642;2023-05-25T01:46:39;97337.63;;;19.71;23.70
64064;BME280;50314;50.618;10.642;2023-05-25T01:49:15;97338.81;;;19.69;23.83
64064;BME280;50314;50.618;10.642;2023-05-25T01:54:36;97344.28;;;19.67;23.71
64064;BME280;50314;50.618;10.642;2023-05-25T01:57:06;97344.28;;;19.67;23.72
64064;BME280;50314;50.618;10.642;2023-05-25T01:59:35;97335.44;;;19.67;23.66
64064;BME280;50314;50.618;10.642;2023-05-25T02:02:02;97331.22;;;19.64;23.67
64064;BME280;50314;50.618;10.642;2023-05-25T02:04:28;97324.22;;;19.63;23.41
64064;BME280;50314;50.618;10.642;2023-05-25T02:06:54;97328.72;;;19.63;23.49
64064;BME280;50314;50.618;10.642;2023-05-25T02:09:20;97324.69;;;19.59;23.52
64064;BME280;50314;50.618;10.642;2023-05-25T02:11:45;97327.50;;;19.57;23.50
64064;BME280;50314;50.618;10.642;2023-05-25T02:14:11;97322.16;;;19.57;23.79
64064;BME280;50314;50.618;10.642;2023-05-25T02:16:37;97325.84;;;19.56;23.78
64064;BME280;50314;50.618;10.642;2023-05-25T02:19:02;97319.78;;;19.54;23.52
64064;BME280;50314;50.618;10.642;2023-05-25T02:21:28;97320.09;;;19.51;23.75
64064;BME280;50314;50.618;10.642;2023-05-25T02:23:53;97319.44;;;19.49;23.64
64064;BME280;50314;50.618;10.642;2023-05-25T02:26:19;97311.72;;;19.46;23.87
64064;BME280;50314;50.618;10.642;2023-05-25T02:28:44;97322.41;;;19.46;23.72
64064;BME280;50314;50.618;10.642;2023-05-25T02:31:10;97323.56;;;19.43;23.72
64064;BME280;50314;50.618;10.642;2023-05-25T02:33:35;97324.69;;;19.41;23.53
64064;BME280;50314;50.618;10.642;2023-05-25T02:36:01;97314.19;;;19.39;23.80
64064;BME280;50314;50.618;10.642;2023-05-25T02:38:26;97321.47;;;19.37;23.55
64064;BME280;50314;50.618;10.642;2023-05-25T02:40:52;97321.63;;;19.36;23.76
64064;BME280;50314;50.618;10.642;2023-05-25T02:43:17;97326.28;;;19.34;23.86
64064;BME280;50314;50.618;10.642;2023-05-25T02:45:43;97328.13;;;19.33;23.64
64064;BME280;50314;50.618;10.642;2023-05-25T02:48:08;97324.75;;;19.31;23.48
64064;BME280;50314;50.618;10.642;2023-05-25T02:50:34;97308.19;;;19.28;23.88
64064;BME280;50314;50.618;10.642;2023-05-25T02:52:59;97316.19;;;19.28;23.39
64064;BME280;50314;50.618;10.642;2023-05-25T02:55:25;97318.22;;;19.25;23.66
64064;BME280;50314;50.618;10.642;2023-05-25T02:57:50;97313.16;;;19.22;23.62
64064;BME280;50314;50.618;10.642;2023-05-25T03:00:17;97321.19;;;19.22;23.89
64064;BME280;50314;50.618;10.642;2023-05-25T03:02:43;97318.50;;;19.22;23.89
64064;BME280;50314;50.618;10.642;2023-05-25T03:05:10;97329.50;;;19.19;23.69
64064;BME280;50314;50.618;10.642;2023-05-25T03:07:36;97327.81;;;19.18;23.84
64064;BME280;50314;50.618;10.642;2023-05-25T03:10:02;97332.31;;;19.18;23.52
64064;BME280;50314;50.618;10.642;2023-05-25T03:12:27;97334.31;;;19.16;23.42
64064;BME280;50314;50.618;10.642;2023-05-25T03:14:53;97339.78;;;19.14;23.73
64064;BME280;50314;50.618;10.642;2023-05-25T03:17:18;97336.44;;;19.12;23.85
64064;BME280;50314;50.618;10.642;2023-05-25T03:19:44;97332.06;;;19.11;23.69
64064;BME280;50314;50.618;10.642;2023-05-25T03:22:09;97325.22;;;19.09;23.75
64064;BME280;50314;50.618;10.642;2023-05-25T03:24:35;97323.53;;;19.08;23.52
64064;BME280;50314;50.618;10.642;2023-05-25T03:27:05;97320.72;;;19.09;23.86
64064;BME280;50314;50.618;10.642;2023-05-25T03:29:31;97329.72;;;19.08;23.58
64064;BME280;50314;50.618;10.642;2023-05-25T03:31:57;97335.06;;;19.08;23.85
64064;BME280;50314;50.618;10.642;2023-05-25T03:34:22;97342.09;;;19.09;23.57
64064;BME280;50314;50.618;10.642;2023-05-25T03:36:49;97328.72;;;19.09;23.79
64064;BME280;50314;50.618;10.642;2023-05-25T03:39:14;97331.22;;;19.11;24.00
64064;BME280;50314;50.618;10.642;2023-05-25T03:41:40;97333.06;;;19.10;23.93
64064;BME280;50314;50.618;10.642;2023-05-25T03:44:07;97339.41;;;19.09;23.69
64064;BME280;50314;50.618;10.642;2023-05-25T03:46:34;97350.09;;;19.09;23.93
64064;BME280;50314;50.618;10.642;2023-05-25T03:49:00;97351.09;;;19.08;23.96
64064;BME280;50314;50.618;10.642;2023-05-25T03:51:25;97357.41;;;19.07;23.60
64064;BME280;50314;50.618;10.642;2023-05-25T03:53:52;97354.06;;;19.05;23.99
64064;BME280;50314;50.618;10.642;2023-05-25T03:56:17;97353.34;;;19.03;23.94
64064;BME280;50314;50.618;10.642;2023-05-25T03:58:43;97354.34;;;19.02;23.72
64064;BME280;50314;50.618;10.642;2023-05-25T04:01:08;97346.34;;;19.02;23.89
64064;BME280;50314;50.618;10.642;2023-05-25T04:03:34;97349.16;;;19.00;23.95
64064;BME280;50314;50.618;10.642;2023-05-25T04:06:00;97350.00;;;19.01;23.59
64064;BME280;50314;50.618;10.642;2023-05-25T04:08:27;97341.97;;;19.01;23.97
64064;BME280;50314;50.618;10.642;2023-05-25T04:10:52;97355.31;;;19.01;23.68
64064;BME280;50314;50.618;10.642;2023-05-25T04:13:18;97350.00;;;19.01;23.62
64064;BME280;50314;50.618;10.642;2023-05-25T04:15:43;97351.69;;;19.02;24.01
64064;BME280;50314;50.618;10.642;2023-05-25T04:18:09;97350.84;;;19.01;23.66
64064;BME280;50314;50.618;10.642;2023-05-25T04:20:35;97357.16;;;19.00;23.62
64064;BME280;50314;50.618;10.642;2023-05-25T04:23:00;97355.31;;;19.01;23.90
64064;BME280;50314;50.618;10.642;2023-05-25T04:25:26;97350.00;;;19.01;23.94
64064;BME280;50314;50.618;10.642;2023-05-25T04:27:51;97353.66;;;19.00;24.09
64064;BME280;50314;50.618;10.642;2023-05-25T04:30:18;97362.78;;;18.97;23.90
64064;BME280;50314;50.618;10.642;2023-05-25T04:32:43;97362.97;;;18.96;23.98
64064;BME280;50314;50.618;10.642;2023-05-25T04:35:10;97365.47;;;18.97;23.75
64064;BME280;50314;50.618;10.642;2023-05-25T04:37:35;97372.50;;;18.98;23.59
64064;BME280;50314;50.618;10.642;2023-05-25T04:40:01;97379.69;;;18.98;23.69
64064;BME280;50314;50.618;10.642;2023-05-25T04:42:31;97382.34;;;18.98;24.00
64064;BME280;50314;50.618;10.642;2023-05-25T04:44:57;97380.81;;;18.95;23.74
64064;BME280;50314;50.618;10.642;2023-05-25T04:47:23;97387.97;;;18.95;24.12
64064;BME280;50314;50.618;10.642;2023-05-25T04:49:50;97380.94;;;18.94;24.04
64064;BME280;50314;50.618;10.642;2023-05-25T04:52:15;97384.59;;;18.93;24.27
64064;BME280;50314;50.618;10.642;2023-05-25T04:54:40;97380.94;;;18.94;23.85
64064;BME280;50314;50.618;10.642;2023-05-25T04:57:07;97382.34;;;18.98;23.71
64064;BME280;50314;50.618;10.642;2023-05-25T04:59:33;97378.38;;;19.02;23.81
64064;BME280;50314;50.618;10.642;2023-05-25T05:01:58;97378.09;;;19.05;23.96
64064;BME280;50314;50.618;10.642;2023-05-25T05:04:24;97371.03;;;19.04;24.12
64064;BME280;50314;50.618;10.642;2023-05-25T05:06:49;97378.22;;;19.04;24.06
64064;BME280;50314;50.618;10.642;2023-05-25T05:09:15;97377.38;;;19.03;24.08
64064;BME280;50314;50.618;10.642;2023-05-25T05:11:40;97379.22;;;19.02;24.03
64064;BME280;50314;50.618;10.642;2023-05-25T05:14:06;97380.06;;;19.03;24.28
64064;BME280;50314;50.618;10.642;2023-05-25T05:16:31;97375.53;;;19.04;24.08
64064;BME280;50314;50.618;10.642;2023-05-25T05:19:00;97376.25;;;19.06;23.89
64064;BME280;50314;50.618;10.642;2023-05-25T05:21:25;97375.25;;;19.07;23.91
64064;BME280;50314;50.618;10.642;2023-05-25T05:23:51;97374.94;;;19.10;24.23
64064;BME280;50314;50.618;10.642;2023-05-25T05:26:16;97373.81;;;19.12;24.38
64064;BME280;50314;50.618;10.642;2023-05-25T05:28:42;97372.50;;;19.16;23.87
64064;BME280;50314;50.618;10.642;2023-05-25T05:31:07;97364.03;;;19.21;23.88
64064;BME280;50314;50.618;10.642;2023-05-25T05:33:32;97370.91;;;19.23;24.25
64064;BME280;50314;50.618;10.642;2023-05-25T05:35:58;97373.28;;;19.27;24.04
64064;BME280;50314;50.618;10.642;2023-05-25T05:38:26;97371.84;;;19.32;24.36
64064;BME280;50314;50.618;10.642;2023-05-25T05:40:51;97369.72;;;19.36;24.32
64064;BME280;50314;50.618;10.642;2023-05-25T05:43:17;97369.44;;;19.39;24.08
64064;BME280;50314;50.618;10.642;2023-05-25T05:45:42;97375.31;;;19.42;24.50
64064;BME280;50314;50.618;10.642;2023-05-25T05:48:08;97382.84;;;19.47;24.16
64064;BME280;50314;50.618;10.642;2023-05-25T05:50:37;97388.59;;;19.52;24.28
64064;BME280;50314;50.618;10.642;2023-05-25T05:53:03;97385.59;;;19.55;24.23
64064;BME280;50314;50.618;10.642;2023-05-25T05:55:29;97384.31;;;19.59;24.55
64064;BME280;50314;50.618;10.642;2023-05-25T05:57:55;97387.22;;;19.66;24.63
64064;BME280;50314;50.618;10.642;2023-05-25T06:00:20;97401.75;;;19.71;24.31
64064;BME280;50314;50.618;10.642;2023-05-25T06:02:46;97395.81;;;19.78;24.54
64064;BME280;50314;50.618;10.642;2023-05-25T06:05:12;97406.72;;;19.84;24.68
64064;BME280;50314;50.618;10.642;2023-05-25T06:07:37;97406.25;;;19.89;24.41
64064;BME280;50314;50.618;10.642;2023-05-25T06:10:04;97407.31;;;19.96;24.19
64064;BME280;50314;50.618;10.642;2023-05-25T06:12:30;97410.38;;;20.01;24.49
64064;BME280;50314;50.618;10.642;2023-05-25T06:14:55;97413.28;;;20.08;24.14
64064;BME280;50314;50.618;10.642;2023-05-25T06:17:22;97407.31;;;20.14;24.01
64064;BME280;50314;50.618;10.642;2023-05-25T06:19:47;97405.84;;;20.20;24.09
64064;BME280;50314;50.618;10.642;2023-05-25T06:22:14;97405.06;;;20.27;24.10
64064;BME280;50314;50.618;10.642;2023-05-25T06:24:39;97406.25;;;20.33;24.11
64064;BME280;50314;50.618;10.642;2023-05-25T06:27:05;97414.47;;;20.39;24.14
64064;BME280;50314;50.618;10.642;2023-05-25T06:29:30;97413.00;;;20.45;24.14
64064;BME280;50314;50.618;10.642;2023-05-25T06:31:56;97416.72;;;20.52;23.94
64064;BME280;50314;50.618;10.642;2023-05-25T06:34:21;97415.13;;;20.59;23.76
64064;BME280;50314;50.618;10.642;2023-05-25T06:36:47;97413.47;;;20.67;23.91
64064;BME280;50314;50.618;10.642;2023-05-25T06:39:12;97417.22;;;20.74;24.13
64064;BME280;50314;50.618;10.642;2023-05-25T06:41:38;97410.53;;;20.78;23.34
64064;BME280;50314;50.618;10.642;2023-05-25T06:44:07;97420.75;;;20.82;23.17
64064;BME280;50314;50.618;10.642;2023-05-25T06:46:33;97416.59;;;20.88;23.51
64064;BME280;50314;50.618;10.642;2023-05-25T06:48:59;97414.94;;;20.95;23.43
64064;BME280;50314;50.618;10.642;2023-05-25T06:51:25;97412.28;;;21.03;23.55
64064;BME280;50314;50.618;10.642;2023-05-25T06:53:52;97413.16;;;21.12;23.56
64064;BME280;50314;50.618;10.642;2023-05-25T06:56:18;97422.25;;;21.19;23.50
64064;BME280;50314;50.618;10.642;2023-05-25T06:58:44;97424.09;;;21.27;23.50
64064;BME280;50314;50.618;10.642;2023-05-25T07:01:09;97425.97;;;21.34;23.43
64064;BME280;50314;50.618;10.642;2023-05-25T07:03:35;97416.09;;;21.43;23.42
64064;BME280;50314;50.618;10.642;2023-05-25T07:06:00;97422.47;;;21.50;23.50
64064;BME280;50314;50.618;10.642;2023-05-25T07:08:26;97416.63;;;21.55;22.44
64064;BME280;50314;50.618;10.642;2023-05-25T07:10:51;97422.84;;;21.55;21.57
64064;BME280;50314;50.618;10.642;2023-05-25T07:13:16;97419.13;;;21.56;21.15
64064;BME280;50314;50.618;10.642;2023-05-25T07:15:42;97410.09;;;21.57;20.71
64064;BME280;50314;50.618;10.642;2023-05-25T07:18:07;97411.09;;;21.56;20.61
64064;BME280;50314;50.618;10.642;2023-05-25T07:20:37;97410.78;;;21.59;20.17
64064;BME280;50314;50.618;10.642;2023-05-25T07:23:03;97420.16;;;21.55;20.04
64064;BME280;50314;50.618;10.642;2023-05-25T07:25:28;97420.16;;;21.55;19.65
64064;BME280;50314;50.618;10.642;2023-05-25T07:27:53;97425.50;;;21.64;20.29
64064;BME280;50314;50.618;10.642;2023-05-25T07:30:19;97422.50;;;21.67;20.17
64064;BME280;50314;50.618;10.642;2023-05-25T07:32:45;97416.47;;;21.73;20.24
64064;BME280;50314;50.618;10.642;2023-05-25T07:35:10;97408.44;;;21.81;20.84
64064;BME280;50314;50.618;10.642;2023-05-25T07:37:36;97410.81;;;21.92;21.28
64064;BME280;50314;50.618;10.642;2023-05-25T07:40:01;97421.38;;;22.02;21.40
64064;BME280;50314;50.618;10.642;2023-05-25T07:42:27;97415.81;;;22.12;21.15
64064;BME280;50314;50.618;10.642;2023-05-25T07:44:58;97407.75;;;22.20;21.56
64064;BME280;50314;50.618;10.642;2023-05-25T07:47:26;97419.16;;;22.30;21.61
64064;BME280;50314;50.618;10.642;2023-05-25T07:49:52;97423.53;;;22.39;21.51
64064;BME280;50314;50.618;10.642;2023-05-25T07:52:18;97418.81;;;22.49;21.34
64064;BME280;50314;50.618;10.642;2023-05-25T07:54:44;97417.75;;;22.59;21.24
64064;BME280;50314;50.618;10.642;2023-05-25T07:57:09;97423.75;;;22.69;21.22
64064;BME280;50314;50.618;10.642;2023-05-25T07:59:35;97425.41;;;22.78;21.33
64064;BME280;50314;50.618;10.642;2023-05-25T08:02:01;97424.41;;;22.87;21.20
64064;BME280;50314;50.618;10.642;2023-05-25T08:04:26;97424.03;;;22.98;21.15
64064;BME280;50314;50.618;10.642;2023-05-25T08:06:52;97422.16;;;23.07;21.56
64064;BME280;50314;50.618;10.642;2023-05-25T08:09:17;97428.13;;;23.17;21.57
64064;BME280;50314;50.618;10.642;2023-05-25T08:11:43;97434.97;;;23.28;20.99
64064;BME280;50314;50.618;10.642;2023-05-25T08:14:09;97435.56;;;23.38;21.28
64064;BME280;50314;50.618;10.642;2023-05-25T08:16:35;97429.66;;;23.51;21.05
64064;BME280;50314;50.618;10.642;2023-05-25T08:19:01;97423.97;;;23.69;21.61
64064;BME280;50314;50.618;10.642;2023-05-25T08:21:26;97429.84;;;23.96;20.76
64064;BME280;50314;50.618;10.642;2023-05-25T08:23:52;97433.91;;;24.29;20.71
64064;BME280;50314;50.618;10.642;2023-05-25T08:26:18;97434.69;;;24.68;20.60
64064;BME280;50314;50.618;10.642;2023-05-25T08:28:44;97438.78;;;25.08;20.16
64064;BME280;50314;50.618;10.642;2023-05-25T08:31:09;97443.00;;;25.47;19.82
64064;BME280;50314;50.618;10.642;2023-05-25T09:23:54;97462.47;;;29.96;16.29
64064;BME280;50314;50.618;10.642;2023-05-25T09:26:20;97457.44;;;30.25;16.09
64064;BME280;50314;50.618;10.642;2023-05-25T09:28:46;97456.34;;;30.58;15.43
64064;BME280;50314;50.618;10.642;2023-05-25T09:31:13;97457.47;;;30.94;15.48
64064;BME280;50314;50.618;10.642;2023-05-25T09:33:38;97455.22;;;31.27;15.47
64064;BME280;50314;50.618;10.642;2023-05-25T09:36:05;97455.38;;;31.63;14.57
64064;BME280;50314;50.618;10.642;2023-05-25T09:38:32;97455.16;;;31.94;14.84
64064;BME280;50314;50.618;10.642;2023-05-25T09:40:57;97454.97;;;32.19;14.08
64064;BME280;50314;50.618;10.642;2023-05-25T09:43:23;97454.78;;;32.56;14.38
64064;BME280;50314;50.618;10.642;2023-05-25T09:45:51;97453.03;;;32.85;13.69
64064;BME280;50314;50.618;10.642;2023-05-25T09:48:16;97452.34;;;33.18;13.68
64064;BME280;50314;50.618;10.642;2023-05-25T09:50:42;97458.44;;;33.49;13.49
64064;BME280;50314;50.618;10.642;2023-05-25T09:53:08;97461.22;;;33.78;13.54
64064;BME280;50314;50.618;10.642;2023-05-25T09:55:36;97459.50;;;34.05;12.96
64064;BME280;50314;50.618;10.642;2023-05-25T09:58:01;97461.13;;;34.35;12.69
64064;BME280;50314;50.618;10.642;2023-05-25T10:00:27;97460.13;;;34.58;11.10
64064;BME280;50314;50.618;10.642;2023-05-25T10:02:52;97457.69;;;34.78;10.36
64064;BME280;50314;50.618;10.642;2023-05-25T10:05:18;97463.19;;;35.00;9.89
64064;BME280;50314;50.618;10.642;2023-05-25T10:07:44;97459.34;;;35.18;9.31
64064;BME280;50314;50.618;10.642;2023-05-25T10:10:13;97457.63;;;35.34;8.82
64064;BME280;50314;50.618;10.642;2023-05-25T10:12:43;97449.00;;;35.47;9.07
64064;BME280;50314;50.618;10.642;2023-05-25T10:15:12;97462.81;;;35.58;8.55
64064;BME280;50314;50.618;10.642;2023-05-25T10:17:52;97454.66;;;35.63;8.74
64064;BME280;50314;50.618;10.642;2023-05-25T10:20:20;97462.28;;;35.83;8.18
64064;BME280;50314;50.618;10.642;2023-05-25T10:22:51;97450.47;;;35.82;7.97
64064;BME280;50314;50.618;10.642;2023-05-25T10:25:27;97454.88;;;35.56;8.32
64064;BME280;50314;50.618;10.642;2023-05-25T10:27:58;97457.16;;;35.20;8.79
64064;BME280;50314;50.618;10.642;2023-05-25T10:30:25;97451.94;;;34.80;9.40
64064;BME280;50314;50.618;10.642;2023-05-25T10:32:53;97462.09;;;34.46;9.65
64064;BME280;50314;50.618;10.642;2023-05-25T10:35:20;97464.34;;;34.32;9.31
64064;BME280;50314;50.618;10.642;2023-05-25T10:37:46;97462.75;;;34.36;8.99
64064;BME280;50314;50.618;10.642;2023-05-25T10:40:12;97460.69;;;34.60;9.77
64064;BME280;50314;50.618;10.642;2023-05-25T10:42:38;97451.41;;;34.78;9.24
64064;BME280;50314;50.618;10.642;2023-05-25T10:45:07;97453.03;;;34.96;9.24
64064;BME280;50314;50.618;10.642;2023-05-25T10:47:36;97457.66;;;35.17;8.88
64064;BME280;50314;50.618;10.642;2023-05-25T10:50:02;97466.97;;;35.38;9.16
64064;BME280;50314;50.618;10.642;2023-05-25T10:52:30;97465.25;;;35.54;9.10
64064;BME280;50314;50.618;10.642;2023-05-25T10:54:56;97459.69;;;35.71;8.55
64064;BME280;50314;50.618;10.642;2023-05-25T10:57:23;97455.44;;;35.85;8.75
64064;BME280;50314;50.618;10.642;2023-05-25T10:59:54;97455.59;;;36.00;8.39
64064;BME280;50314;50.618;10.642;2023-05-25T11:02:27;97461.81;;;36.18;8.41
64064;BME280;50314;50.618;10.642;2023-05-25T11:05:31;97460.84;;;36.34;8.22
64064;BME280;50314;50.618;10.642;2023-05-25T11:07:58;97463.22;;;36.58;8.60
64064;BME280;50314;50.618;10.642;2023-05-25T11:13:37;97462.91;;;36.91;8.51
64064;BME280;50314;50.618;10.642;2023-05-25T11:18:56;97463.69;;;37.34;8.70
64064;BME280;50314;50.618;10.642;2023-05-25T11:26:21;97441.28;;;37.78;8.64
64064;BME280;50314;50.618;10.642;2023-05-25T11:28:46;97443.22;;;37.93;8.89
64064;BME280;50314;50.618;10.642;2023-05-25T11:31:12;97447.88;;;37.98;8.44
64064;BME280;50314;50.618;10.642;2023-05-25T11:33:38;97439.34;;;37.74;8.90
64064;BME280;50314;50.618;10.642;2023-05-25T11:36:06;97443.34;;;37.35;9.12
64064;BME280;50314;50.618;10.642;2023-05-25T11:38:32;97440.16;;;36.96;9.40
64064;BME280;50314;50.618;10.642;2023-05-25T11:41:02;97437.44;;;36.54;9.49
64064;BME280;50314;50.618;10.642;2023-05-25T11:43:28;97436.03;;;36.19;10.13
64064;BME280;50314;50.618;10.642;2023-05-25T11:45:55;97436.28;;;35.85;10.19
64064;BME280;50314;50.618;10.642;2023-05-25T11:48:21;97437.34;;;35.57;10.40
64064;BME280;50314;50.618;10.642;2023-05-25T11:50:46;97436.50;;;35.29;10.43
64064;BME280;50314;50.618;10.642;2023-05-25T11:53:12;97428.75;;;35.04;11.11
64064;BME280;50314;50.618;10.642;2023-05-25T11:55:37;97438.84;;;34.82;10.97
64064;BME280;50314;50.618;10.642;2023-05-25T11:58:05;97435.56;;;34.63;11.59
64064;BME280;50314;50.618;10.642;2023-05-25T12:00:31;97433.44;;;34.48;11.30
64064;BME280;50314;50.618;10.642;2023-05-25T12:02:56;97433.19;;;34.33;11.53
64064;BME280;50314;50.618;10.642;2023-05-25T12:05:22;97431.28;;;34.17;11.60
64064;BME280;50314;50.618;10.642;2023-05-25T12:07:48;97429.59;;;33.99;12.02
64064;BME280;50314;50.618;10.642;2023-05-25T12:10:14;97422.66;;;33.91;11.97
64064;BME280;50314;50.618;10.642;2023-05-25T12:15:12;97419.91;;;33.62;11.71
64064;BME280;50314;50.618;10.642;2023-05-25T12:17:42;97419.88;;;33.45;11.12
64064;BME280;50314;50.618;10.642;2023-05-25T12:20:09;97423.75;;;33.33;11.56
64064;BME280;50314;50.618;10.642;2023-05-25T12:22:36;97412.22;;;33.19;12.03
64064;BME280;50314;50.618;10.642;2023-05-25T12:25:05;97411.22;;;33.08;12.16
64064;BME280;50314;50.618;10.642;2023-05-25T12:27:30;97407.44;;;32.97;12.38
64064;BME280;50314;50.618;10.642;2023-05-25T12:29:57;97422.78;;;32.87;12.47
64064;BME280;50314;50.618;10.642;2023-05-25T12:32:23;97414.09;;;32.78;12.62
64064;BME280;50314;50.618;10.642;2023-05-25T12:34:48;97418.84;;;32.71;12.72
64064;BME280;50314;50.618;10.642;2023-05-25T12:37:20;97419.44;;;32.61;12.93
64064;BME280;50314;50.618;10.642;2023-05-25T12:39:46;97408.91;;;32.53;12.89
64064;BME280;50314;50.618;10.642;2023-05-25T12:42:14;97411.78;;;32.46;13.15
64064;BME280;50314;50.618;10.642;2023-05-25T12:44:40;97404.75;;;32.39;13.25
64064;BME280;50314;50.618;10.642;2023-05-25T12:49:39;97392.66;;;32.23;12.80
64064;BME280;50314;50.618;10.642;2023-05-25T12:52:07;97403.56;;;32.11;12.14
64064;BME280;50314;50.618;10.642;2023-05-25T12:57:02;97397.81;;;31.77;11.75
64064;BME280;50314;50.618;10.642;2023-05-25T12:59:29;97407.69;;;31.60;11.46
64064;BME280;50314;50.618;10.642;2023-05-25T13:01:55;97399.91;;;31.45;11.53
64064;BME280;50314;50.618;10.642;2023-05-25T13:04:21;97406.63;;;31.31;11.52
64064;BME280;50314;50.618;10.642;2023-05-25T13:06:47;97405.34;;;31.15;11.37
64064;BME280;50314;50.618;10.642;2023-05-25T13:09:13;97407.63;;;31.00;11.57
64064;BME280;50314;50.618;10.642;2023-05-25T13:11:38;97398.75;;;30.86;11.86
64064;BME280;50314;50.618;10.642;2023-05-25T13:14:04;97404.59;;;30.71;12.07
64064;BME280;50314;50.618;10.642;2023-05-25T13:16:31;97403.44;;;30.60;11.71
64064;BME280;50314;50.618;10.642;2023-05-25T13:18:57;97396.84;;;30.50;11.67
64064;BME280;50314;50.618;10.642;2023-05-25T13:21:22;97390.94;;;30.34;11.56
64064;BME280;50314;50.618;10.642;2023-05-25T13:23:48;97398.59;;;30.19;11.75
64064;BME280;50314;50.618;10.642;2023-05-25T13:26:14;97400.13;;;30.08;12.08
64064;BME280;50314;50.618;10.642;2023-05-25T13:28:39;97389.16;;;29.96;11.93
64064;BME280;50314;50.618;10.642;2023-05-25T13:31:05;97393.81;;;29.89;12.07
64064;BME280;50314;50.618;10.642;2023-05-25T13:33:30;97400.53;;;29.80;12.22
64064;BME280;50314;50.618;10.642;2023-05-25T13:35:55;97393.50;;;29.72;11.89
64064;BME280;50314;50.618;10.642;2023-05-25T13:38:32;97389.63;;;29.62;12.08
64064;BME280;50314;50.618;10.642;2023-05-25T13:40:58;97389.69;;;29.48;11.98
64064;BME280;50314;50.618;10.642;2023-05-25T13:43:24;97384.91;;;29.44;12.11
64064;BME280;50314;50.618;10.642;2023-05-25T13:45:50;97385.38;;;29.34;12.10
64064;BME280;50314;50.618;10.642;2023-05-25T13:48:15;97388.75;;;29.23;12.27
64064;BME280;50314;50.618;10.642;2023-05-25T13:50:41;97390.91;;;29.14;12.24
64064;BME280;50314;50.618;10.642;2023-05-25T13:53:09;97386.97;;;29.03;12.19
64064;BME280;50314;50.618;10.642;2023-05-25T13:55:34;97390.78;;;28.96;12.07
64064;BME280;50314;50.618;10.642;2023-05-25T13:58:00;97373.66;;;28.89;12.34
64064;BME280;50314;50.618;10.642;2023-05-25T14:00:25;97385.59;;;28.81;12.60
64064;BME280;50314;50.618;10.642;2023-05-25T14:02:51;97380.41;;;28.73;12.64